Time;durP1;ratioP1;P1;durP2;ratioP2;P2;SDS_P1;SDS_P2;PMS_P1;PMS_P2;Temp;Humidity;BMP_temperature;BMP_pressure;BME280_temperature;BME280_humidity;BME280_pressure;Samples;Min_cycle;Max_cycle;Signal;HPM_P1;HPM_P2
2023/08/12 00:00:54;;;;;;;6.53;3.47;;;;;;;24.55;55.16;101632.94;5030226;27;96948;-67
2023/08/12 00:03:20;;;;;;;5.25;3.08;;;;;;;24.51;56.01;101639.59;5031368;27;98686;-66
2023/08/12 00:05:47;;;;;;;7.95;3.75;;;;;;;24.31;57.47;101638.47;5031690;27;99280;-66
2023/08/12 00:08:13;;;;;;;5.05;3.28;;;;;;;24.05;59.19;101643.19;5026255;27;99176;-68
2023/08/12 00:10:40;;;;;;;6.63;3.10;;;;;;;24.16;58.99;101640.50;5026814;27;98226;-67
2023/08/12 00:13:06;;;;;;;4.97;3.10;;;;;;;24.20;58.55;101643.88;5031098;27;96996;-68
2023/08/12 00:15:34;;;;;;;4.53;2.85;;;;;;;24.06;59.10;101638.66;5030518;27;99499;-67
2023/08/12 00:18:01;;;;;;;9.50;3.40;;;;;;;24.16;57.46;101635.09;5033117;27;99122;-68
2023/08/12 00:20:27;;;;;;;9.20;3.33;;;;;;;24.25;56.57;101643.50;5030130;27;96927;-67
2023/08/12 00:22:54;;;;;;;4.90;3.30;;;;;;;24.36;56.20;101643.50;5030217;27;98867;-68
2023/08/12 00:25:20;;;;;;;7.85;3.33;;;;;;;24.34;56.07;101640.06;5029388;27;98316;-67
2023/08/12 00:27:46;;;;;;;5.82;2.90;;;;;;;24.30;56.43;101634.03;5030504;27;98829;-68
2023/08/12 00:30:13;;;;;;;4.30;2.80;;;;;;;24.33;56.14;101643.75;5029672;27;97212;-68
2023/08/12 00:32:41;;;;;;;6.47;3.47;;;;;;;24.32;55.69;101629.38;5027700;27;97004;-68
2023/08/12 00:35:08;;;;;;;4.07;3.20;;;;;;;24.43;55.31;101632.09;5028462;27;101333;-67
2023/08/12 00:37:34;;;;;;;5.43;3.00;;;;;;;24.17;56.11;101631.41;5033143;27;99486;-68
2023/08/12 00:40:01;;;;;;;5.30;2.65;;;;;;;24.30;56.09;101622.38;5029118;27;98489;-68
2023/08/12 00:42:28;;;;;;;5.75;3.13;;;;;;;24.39;55.57;101629.75;5031043;27;96936;-68
2023/08/12 00:44:54;;;;;;;6.40;3.08;;;;;;;24.15;56.32;101629.84;5032003;27;101901;-68
2023/08/12 00:47:21;;;;;;;7.35;3.15;;;;;;;24.38;55.32;101609.13;5031840;27;98254;-67
2023/08/12 00:49:50;;;;;;;4.63;2.63;;;;;;;24.49;54.63;101615.38;5030500;27;97014;-68
2023/08/12 00:52:18;;;;;;;3.88;2.92;;;;;;;24.27;55.83;101609.13;5025865;27;97006;-67
2023/08/12 00:54:45;;;;;;;8.18;2.75;;;;;;;24.49;55.13;101606.41;5025571;27;99024;-68
2023/08/12 00:57:12;;;;;;;5.35;2.95;;;;;;;24.40;54.67;101599.06;5024056;27;99977;-68
2023/08/12 00:59:39;;;;;;;5.18;3.30;;;;;;;24.37;54.69;101596.59;5025550;27;98326;-68
2023/08/12 01:02:06;;;;;;;7.38;3.10;;;;;;;24.18;55.33;101589.94;5027223;27;98458;-68
2023/08/12 01:04:32;;;;;;;9.07;3.08;;;;;;;24.31;54.96;101586.28;5027987;27;97778;-68
2023/08/12 01:07:00;;;;;;;6.93;2.83;;;;;;;24.21;55.19;101583.47;5019258;27;98874;-67
2023/08/12 01:09:27;;;;;;;7.70;3.22;;;;;;;24.21;55.13;101583.47;5028304;27;96997;-68
2023/08/12 01:12:00;;;;;;;5.85;2.85;;;;;;;24.09;55.52;101579.84;5020799;27;98983;-68
2023/08/12 01:14:33;;;;;;;6.97;2.70;;;;;;;23.99;56.12;101578.00;5027447;27;99357;-68
2023/08/12 01:17:04;;;;;;;5.78;2.92;;;;;;;23.92;56.16;101571.38;5030435;27;98910;-68
2023/08/12 01:19:35;;;;;;;5.53;3.30;;;;;;;23.89;55.77;101571.63;5030522;27;96813;-67
2023/08/12 01:22:05;;;;;;;5.78;2.95;;;;;;;24.01;55.71;101578.75;5028997;27;96955;-68
2023/08/12 01:24:36;;;;;;;4.30;2.88;;;;;;;24.08;55.59;101582.69;5028108;27;99382;-68
2023/08/12 01:27:03;;;;;;;6.43;2.90;;;;;;;24.10;55.51;101586.13;5028973;27;98894;-68
2023/08/12 01:29:30;;;;;;;8.18;3.35;;;;;;;24.05;55.49;101588.31;5029992;27;96746;-69
2023/08/12 01:32:02;;;;;;;7.85;3.45;;;;;;;23.95;55.56;101577.41;5026421;27;98517;-68
2023/08/12 01:34:35;;;;;;;2.92;2.67;;;;;;;23.87;56.01;101579.84;5027809;27;98568;-68
2023/08/12 01:37:05;;;;;;;7.60;3.00;;;;;;;23.93;55.61;101570.41;5023076;27;98819;-68
2023/08/12 01:39:33;;;;;;;6.13;2.63;;;;;;;23.84;56.15;101558.47;5024901;27;97878;-67
2023/08/12 01:42:02;;;;;;;7.68;2.72;;;;;;;23.81;55.98;101561.44;5023508;27;96887;-68
2023/08/12 01:44:29;;;;;;;6.13;2.90;;;;;;;23.94;55.63;101567.59;5027467;27;98117;-68
2023/08/12 01:46:56;;;;;;;6.20;3.03;;;;;;;23.73;55.86;101561.16;5026931;27;98956;-66
2023/08/12 01:49:23;;;;;;;6.22;2.97;;;;;;;23.77;56.43;101562.63;5027314;27;96834;-66
2023/08/12 01:51:49;;;;;;;4.03;2.72;;;;;;;23.78;56.03;101559.81;5030075;27;96825;-66
2023/08/12 01:54:15;;;;;;;6.00;3.20;;;;;;;24.03;55.30;101556.03;5029080;27;99003;-68
2023/08/12 01:56:42;;;;;;;6.53;3.20;;;;;;;23.94;55.41;101559.50;5022855;27;98653;-68
2023/08/12 01:59:09;;;;;;;3.50;2.63;;;;;;;23.69;56.14;101555.16;5025039;27;96860;-68
2023/08/12 02:01:36;;;;;;;4.88;2.70;;;;;;;23.97;55.50;101547.56;5026386;27;96898;-67
2023/08/12 02:04:02;;;;;;;6.20;3.17;;;;;;;24.05;55.00;101543.28;5022575;27;99385;-68
2023/08/12 02:06:29;;;;;;;7.60;3.00;;;;;;;23.88;55.83;101541.06;5027724;27;101168;-68
2023/08/12 02:08:55;;;;;;;5.38;2.90;;;;;;;23.96;55.56;101538.59;5026242;27;97037;-68
2023/08/12 02:11:21;;;;;;;6.95;3.05;;;;;;;23.90;55.55;101531.00;5027456;27;97089;-67
2023/08/12 02:13:48;;;;;;;3.95;2.88;;;;;;;24.07;55.37;101533.25;5028689;27;101961;-68
2023/08/12 02:16:16;;;;;;;7.15;2.95;;;;;;;24.02;55.68;101524.66;5026050;27;98205;-68
2023/08/12 02:18:42;;;;;;;3.05;2.65;;;;;;;23.99;55.59;101529.41;5030679;27;96732;-68
2023/08/12 02:21:09;;;;;;;4.60;2.80;;;;;;;24.11;55.18;101528.44;5026067;27;96848;-68
2023/08/12 02:23:35;;;;;;;5.45;3.03;;;;;;;24.03;55.31;101530.88;5029184;27;99335;-68
2023/08/12 02:26:03;;;;;;;5.15;2.85;;;;;;;24.09;54.96;101530.44;5027659;27;99339;-68
2023/08/12 02:28:29;;;;;;;5.45;3.08;;;;;;;24.07;54.87;101525.13;5029337;27;96803;-68
2023/08/12 02:30:55;;;;;;;3.70;2.88;;;;;;;24.14;54.53;101526.38;5029528;27;96960;-68
2023/08/12 02:33:23;;;;;;;7.75;3.55;;;;;;;24.02;54.97;101513.84;5029634;27;99726;-68
2023/08/12 02:35:53;;;;;;;4.60;2.80;;;;;;;23.81;56.07;101512.84;5028181;27;97996;-67
2023/08/12 02:38:20;;;;;;;6.63;2.97;;;;;;;24.06;55.25;101503.66;5028478;27;96832;-67
2023/08/12 02:40:49;;;;;;;5.63;2.92;;;;;;;24.25;54.77;101512.03;5029765;27;96837;-67
2023/08/12 02:43:15;;;;;;;4.68;3.05;;;;;;;24.31;54.39;101510.66;5024301;27;98994;-66
2023/08/12 02:45:41;;;;;;;6.20;3.20;;;;;;;24.25;54.32;101511.16;5026213;27;98819;-66
2023/08/12 02:48:09;;;;;;;5.10;3.05;;;;;;;24.03;55.10;101504.75;5026972;27;97791;-66
2023/08/12 02:50:37;;;;;;;4.28;3.42;;;;;;;24.00;55.26;101509.56;5023418;27;97168;-66
2023/08/12 02:53:04;;;;;;;7.70;3.03;;;;;;;24.14;55.01;101502.06;5028190;27;99112;-66
2023/08/12 02:55:31;;;;;;;10.80;3.80;;;;;;;24.01;55.28;101498.63;5018889;27;98199;-66
2023/08/12 02:57:58;;;;;;;5.22;3.20;;;;;;;24.16;55.06;101491.97;5025551;27;97229;-67
2023/08/12 03:00:24;;;;;;;5.32;3.38;;;;;;;23.89;55.63;101501.44;5023000;27;96919;-67
2023/08/12 03:02:51;;;;;;;6.45;3.15;;;;;;;24.11;55.01;101494.19;5025460;27;102134;-66
2023/08/12 03:05:17;;;;;;;5.05;2.80;;;;;;;23.93;54.92;101502.91;5026256;27;98774;-66
2023/08/12 03:07:45;;;;;;;6.50;2.88;;;;;;;24.01;55.44;101489.69;5028872;27;96811;-66
2023/08/12 03:10:12;;;;;;;3.88;2.97;;;;;;;24.02;55.32;101491.41;5023212;27;96997;-67
2023/08/12 03:12:38;;;;;;;3.47;2.75;;;;;;;24.06;55.18;101490.16;5021067;27;99139;-67
2023/08/12 03:15:07;;;;;;;3.85;2.90;;;;;;;23.79;55.94;101487.81;5021233;27;98807;-67
2023/08/12 03:17:34;;;;;;;11.35;3.17;;;;;;;23.88;55.46;101489.78;5025556;27;96889;-66
2023/08/12 03:20:00;;;;;;;6.38;2.75;;;;;;;24.08;55.18;101482.81;5029595;27;96824;-67
2023/08/12 03:22:28;;;;;;;6.68;3.20;;;;;;;24.07;54.96;101489.19;5027990;27;98319;-66
2023/08/12 03:24:55;;;;;;;7.97;3.15;;;;;;;23.77;55.93;101484.38;5029474;27;98963;-67
2023/08/12 03:27:22;;;;;;;6.20;3.13;;;;;;;23.68;56.45;101483.28;5029795;27;97350;-68
2023/08/12 03:29:48;;;;;;;10.13;3.22;;;;;;;23.55;56.36;101474.44;5027160;27;96847;-68
2023/08/12 03:32:15;;;;;;;6.32;2.92;;;;;;;23.80;56.10;101476.03;5021242;27;99444;-68
2023/08/12 03:34:41;;;;;;;7.47;3.20;;;;;;;23.84;55.59;101466.72;5029348;27;99005;-69
2023/08/12 03:37:07;;;;;;;4.53;2.70;;;;;;;23.94;55.73;101461.44;5026209;27;96992;-68
2023/08/12 03:39:34;;;;;;;5.85;3.20;;;;;;;23.66;56.43;101460.09;5029693;27;96897;-68
2023/08/12 03:42:02;;;;;;;4.45;3.00;;;;;;;23.90;55.45;101463.53;5029819;27;99414;-68
2023/08/12 03:44:28;;;;;;;5.97;3.03;;;;;;;23.77;55.82;101471.75;5028389;27;100931;-66
2023/08/12 03:46:54;;;;;;;5.53;3.17;;;;;;;23.72;56.04;101473.94;5024300;27;96810;-67
2023/08/12 03:49:21;;;;;;;9.82;3.30;;;;;;;23.68;55.92;101472.50;5023401;27;97504;-68
2023/08/12 03:51:47;;;;;;;4.53;3.22;;;;;;;23.58;56.27;101470.63;5022371;27;100783;-67
2023/08/12 03:54:13;;;;;;;6.25;2.95;;;;;;;23.55;55.98;101460.09;5027423;27;99384;-68
2023/08/12 03:56:40;;;;;;;5.78;3.20;;;;;;;23.44;56.27;101459.03;5026632;27;98625;-68
2023/08/12 03:59:07;;;;;;;5.10;3.00;;;;;;;23.60;55.83;101452.47;5025404;27;98817;-69
2023/08/12 04:01:34;;;;;;;6.75;2.92;;;;;;;23.69;55.66;101449.06;5023227;27;98855;-69
2023/08/12 04:04:00;;;;;;;6.20;3.10;;;;;;;23.80;55.56;101447.22;5026405;27;101859;-70
2023/08/12 04:06:27;;;;;;;5.13;2.72;;;;;;;23.85;55.18;101444.16;5019931;27;98859;-69
2023/08/12 04:08:53;;;;;;;4.13;3.22;;;;;;;;;;5025370;27;96870;-69
2023/08/12 04:11:19;;;;;;;4.55;3.28;;;;;;;23.70;55.22;101453.44;5022989;27;97796;-70
2023/08/12 04:13:46;;;;;;;7.70;3.28;;;;;;;23.52;55.77;101449.53;5025091;27;98805;-69
2023/08/12 04:16:13;;;;;;;7.60;3.17;;;;;;;23.64;55.20;101441.31;5021939;27;97114;-69
2023/08/12 04:18:40;;;;;;;6.30;3.20;;;;;;;23.70;55.02;101445.34;5021934;27;97044;-71
2023/08/12 04:21:06;;;;;;;6.25;3.28;;;;;;;23.65;54.94;101437.63;5023500;27;99567;-69
2023/08/12 04:23:32;;;;;;;4.55;2.75;;;;;;;23.38;55.52;101432.53;5020050;27;98992;-69
2023/08/12 04:25:59;;;;;;;6.72;3.22;;;;;;;23.38;55.74;101432.53;5018691;27;97732;-68
2023/08/12 04:28:25;;;;;;;4.25;2.78;;;;;;;23.73;54.33;101434.34;5031812;27;97447;-69
2023/08/12 04:30:52;;;;;;;5.88;2.97;;;;;;;23.51;55.20;101427.06;5026595;27;99927;-70
2023/08/12 04:33:20;;;;;;;5.88;3.10;;;;;;;23.61;54.95;101428.09;5029975;27;100963;-70
2023/08/12 04:35:47;;;;;;;10.55;3.20;;;;;;;23.89;54.08;101436.69;5026194;27;97070;-69
2023/08/12 04:38:13;;;;;;;5.32;3.00;;;;;;;23.69;54.42;101440.97;5031757;27;96793;-69
2023/08/12 04:40:40;;;;;;;7.03;3.22;;;;;;;24.00;53.79;101440.22;5027443;27;98981;-69
2023/08/12 04:43:08;;;;;;;6.30;3.17;;;;;;;23.86;54.19;101445.88;5027622;27;98762;-69
2023/08/12 04:45:34;;;;;;;5.90;3.30;;;;;;;24.05;53.97;101446.09;5025882;27;96870;-69
2023/08/12 04:48:01;;;;;;;5.63;3.00;;;;;;;24.37;53.08;101443.50;5030101;27;96917;-69
2023/08/12 04:50:33;;;;;;;5.88;3.40;;;;;;;24.13;53.19;101440.09;5026897;27;99099;-69
2023/08/12 04:53:00;;;;;;;5.80;3.47;;;;;;;23.94;53.66;101438.03;5029249;27;99024;-69
2023/08/12 04:55:27;;;;;;;4.25;2.90;;;;;;;24.05;53.35;101442.53;5032943;27;97831;-69
2023/08/12 04:57:53;;;;;;;7.28;3.00;;;;;;;24.02;53.54;101440.97;5021825;27;98482;-69
2023/08/12 05:00:21;;;;;;;4.38;3.10;;;;;;;24.22;52.89;101445.59;5025031;27;99006;-70
2023/08/12 05:02:47;;;;;;;5.65;2.80;;;;;;;24.36;52.17;101435.53;5028033;27;99514;-68
2023/08/12 05:05:14;;;;;;;5.78;2.70;;;;;;;24.44;51.88;101433.06;5028850;27;96904;-67
2023/08/12 05:07:41;;;;;;;4.20;2.72;;;;;;;24.72;51.40;101429.78;5025102;27;96864;-68
2023/08/12 05:10:09;;;;;;;10.60;2.72;;;;;;;24.65;51.42;101433.97;5030851;27;99254;-67
2023/08/12 05:12:35;;;;;;;6.63;2.80;;;;;;;24.99;50.93;101422.06;5026873;27;98791;-67
2023/08/12 05:15:02;;;;;;;6.28;2.95;;;;;;;25.25;49.64;101429.78;5025949;27;96799;-68
2023/08/12 05:17:28;;;;;;;4.93;3.10;;;;;;;25.10;49.86;101422.97;5025512;27;97013;-68
2023/08/12 05:19:55;;;;;;;11.18;2.50;;;;;;;25.24;49.96;101412.69;5028318;27;99185;-69
2023/08/12 05:22:21;;;;;;;5.63;2.75;;;;;;;25.24;49.71;101422.66;5026972;27;98977;-68
2023/08/12 05:24:49;;;;;;;4.88;2.70;;;;;;;25.53;48.37;101418.28;5029286;27;97212;-67
2023/08/12 05:27:15;;;;;;;4.07;2.50;;;;;;;25.71;48.43;101415.84;5027682;27;97100;-67
2023/08/12 05:29:42;;;;;;;6.68;2.78;;;;;;;25.51;48.55;101420.25;5029687;27;100072;-67
2023/08/12 05:32:08;;;;;;;5.30;2.80;;;;;;;25.64;47.98;101417.38;5028121;27;98887;-70
2023/08/12 05:34:35;;;;;;;7.40;3.20;;;;;;;25.97;47.80;101406.25;5032651;27;96847;-66
2023/08/12 05:37:01;;;;;;;3.13;2.65;;;;;;;25.89;47.35;101408.78;5031650;27;97082;-67
2023/08/12 05:39:27;;;;;;;4.40;2.70;;;;;;;26.14;47.02;101415.53;5031689;27;101977;-67
2023/08/12 05:41:55;;;;;;;5.68;3.15;;;;;;;26.27;47.00;101418.88;5024498;27;100013;-68
2023/08/12 05:44:21;;;;;;;3.75;2.33;;;;;;;26.16;47.05;101424.41;5031674;27;96873;-67
2023/08/12 05:46:48;;;;;;;6.68;2.92;;;;;;;26.22;46.63;101415.72;5025173;27;96873;-67
2023/08/12 05:49:14;;;;;;;4.40;2.10;;;;;;;26.34;46.55;101411.06;5025689;27;98975;-67
2023/08/12 05:51:41;;;;;;;5.82;2.70;;;;;;;26.22;46.63;101404.88;5029446;27;97780;-67
2023/08/12 05:54:07;;;;;;;6.40;3.17;;;;;;;25.98;47.43;101401.69;5031913;27;96742;-67
2023/08/12 05:56:34;;;;;;;7.68;2.90;;;;;;;26.07;47.52;101407.13;5028408;27;97129;-67
2023/08/12 05:59:01;;;;;;;5.20;2.22;;;;;;;26.05;48.07;101408.25;5021453;27;99148;-67
2023/08/12 06:01:28;;;;;;;4.18;2.50;;;;;;;26.11;47.88;101408.56;5026375;27;98884;-67
2023/08/12 06:03:54;;;;;;;6.53;3.03;;;;;;;26.03;47.71;101411.09;5029751;27;97131;-68
2023/08/12 06:06:21;;;;;;;7.60;2.90;;;;;;;26.13;47.57;101406.56;5029659;27;96903;-67
2023/08/12 06:08:47;;;;;;;7.82;2.90;;;;;;;26.13;47.59;101422.81;5026588;27;99630;-68
2023/08/12 06:11:14;;;;;;;5.30;2.83;;;;;;;26.52;46.97;101422.91;5028425;27;98864;-67
2023/08/12 06:13:40;;;;;;;2.92;2.47;;;;;;;26.46;47.01;101413.50;5029315;27;96796;-70
2023/08/12 06:16:08;;;;;;;4.10;2.90;;;;;;;26.47;47.03;101417.06;5027285;27;96792;-69
2023/08/12 06:18:35;;;;;;;5.07;2.78;;;;;;;26.40;47.21;101424.03;5031413;27;99313;-70
2023/08/12 06:21:01;;;;;;;4.68;2.88;;;;;;;26.39;47.37;101420.47;5023022;27;98964;-69
2023/08/12 06:23:29;;;;;;;5.45;2.40;;;;;;;26.30;47.68;101415.91;5030030;27;97736;-69
2023/08/12 06:25:56;;;;;;;7.35;2.67;;;;;;;26.71;46.67;101408.53;5028804;27;97149;-68
2023/08/12 06:28:22;;;;;;;6.60;2.75;;;;;;;26.52;47.04;101412.94;5026880;27;97366;-69
2023/08/12 06:30:48;;;;;;;7.05;2.97;;;;;;;26.83;46.85;101410.97;5025441;27;99372;-67
2023/08/12 06:33:16;;;;;;;10.13;3.00;;;;;;;26.92;46.97;101415.53;5025003;27;97872;-70
2023/08/12 06:35:43;;;;;;;5.38;2.65;;;;;;;26.87;47.16;101411.53;5021432;27;98456;-68
2023/08/12 06:38:10;;;;;;;4.05;2.70;;;;;;;27.00;46.91;101406.69;5018792;27;99046;-68
2023/08/12 06:40:36;;;;;;;7.35;3.13;;;;;;;27.40;45.88;101402.91;5026879;27;99417;-68
2023/08/12 06:43:02;;;;;;;5.28;2.80;;;;;;;27.02;46.53;101409.25;5025248;27;96864;-67
2023/08/12 06:45:29;;;;;;;4.80;2.80;;;;;;;27.19;46.75;101403.09;5026902;27;97033;-68
2023/08/12 06:47:55;;;;;;;4.32;2.80;;;;;;;27.15;46.75;101413.38;5027551;27;101862;-68
2023/08/12 06:50:23;;;;;;;4.35;3.00;;;;;;;27.58;46.03;101409.28;5026998;27;98984;-68
2023/08/12 06:52:49;;;;;;;5.65;2.58;;;;;;;27.60;45.12;101402.72;5025562;27;96897;-70
2023/08/12 06:55:16;;;;;;;8.32;2.75;;;;;;;27.61;45.36;101407.16;5024663;27;96867;-67
2023/08/12 06:57:42;;;;;;;6.50;2.63;;;;;;;27.54;46.02;101399.75;5026749;27;98986;-68
2023/08/12 07:00:10;;;;;;;5.78;2.92;;;;;;;27.86;44.76;101400.19;5026214;27;99162;-68
2023/08/12 07:02:36;;;;;;;4.57;2.90;;;;;;;27.54;45.51;101394.31;5027449;27;96826;-68
2023/08/12 07:05:03;;;;;;;8.27;2.90;;;;;;;27.67;45.10;101397.56;5024179;27;97565;-69
2023/08/12 07:07:30;;;;;;;5.82;2.80;;;;;;;27.99;44.72;101389.81;5022191;27;99771;-69
2023/08/12 07:09:57;;;;;;;5.40;3.05;;;;;;;28.28;43.73;101384.25;5024514;27;97704;-69
2023/08/12 07:12:23;;;;;;;6.72;3.00;;;;;;;28.14;44.00;101387.47;5030694;27;97661;-69
2023/08/12 07:14:49;;;;;;;7.78;3.00;;;;;;;28.06;43.87;101387.34;5024183;27;97378;-69
2023/08/12 07:17:16;;;;;;;6.30;3.60;;;;;;;27.62;44.11;101383.59;5026884;27;99211;-69
2023/08/12 07:19:43;;;;;;;5.00;2.85;;;;;;;27.47;44.85;101385.03;5017918;27;99352;-69
2023/08/12 07:22:09;;;;;;;7.20;2.50;;;;;;;27.85;44.61;101382.16;5021636;27;97146;-68
2023/08/12 07:24:37;;;;;;;6.32;2.75;;;;;;;28.43;43.16;101387.25;5021854;27;97007;-68
2023/08/12 07:27:03;;;;;;;12.18;3.20;;;;;;;28.66;42.79;101388.53;5026767;27;99133;-68
2023/08/12 07:29:30;;;;;;;3.25;2.55;;;;;;;28.83;42.41;101384.97;5024935;27;98867;-68
2023/08/12 07:31:56;;;;;;;5.85;2.72;;;;;;;29.01;41.79;101378.66;5025239;27;97974;-68
2023/08/12 07:34:23;;;;;;;10.05;2.78;;;;;;;28.89;42.26;101378.88;5026313;27;96946;-68
2023/08/12 07:36:49;;;;;;;6.05;2.67;;;;;;;29.03;42.27;101385.63;5024530;27;98878;-68
2023/08/12 07:39:16;;;;;;;5.30;2.75;;;;;;;29.00;42.63;101393.28;5024071;27;98926;-67
2023/08/12 07:41:43;;;;;;;9.02;3.20;;;;;;;29.07;42.22;101383.47;5019524;27;97162;-69
2023/08/12 07:44:10;;;;;;;3.85;3.10;;;;;;;28.63;43.50;101377.94;5024538;27;96863;-68
2023/08/12 07:46:36;;;;;;;5.88;2.50;;;;;;;28.96;43.11;101378.25;5020258;27;99230;-67
2023/08/12 07:49:03;;;;;;;4.60;2.70;;;;;;;29.31;42.12;101373.59;5020555;27;98934;-69
2023/08/12 07:51:29;;;;;;;7.00;2.70;;;;;;;29.26;41.74;101381.38;5025486;27;97114;-66
2023/08/12 07:53:56;;;;;;;6.65;3.17;;;;;;;29.00;42.68;101390.56;5023251;27;97228;-65
2023/08/12 07:56:23;;;;;;;4.35;2.78;;;;;;;29.03;43.20;101387.50;5024993;27;101091;-70
2023/08/12 07:58:51;;;;;;;4.93;2.83;;;;;;;28.94;42.94;101375.72;5022728;27;100353;-70
2023/08/12 08:01:17;;;;;;;9.40;2.90;;;;;;;28.78;42.97;101381.88;5026215;27;98384;-70
2023/08/12 08:03:44;;;;;;;7.53;3.30;;;;;;;28.67;43.73;101373.94;5030525;27;97615;-69
2023/08/12 08:06:11;;;;;;;5.43;3.03;;;;;;;28.74;42.98;101377.75;5021915;27;98942;-69
2023/08/12 08:08:37;;;;;;;5.40;3.30;;;;;;;28.96;43.10;101378.25;5026363;27;99132;-69
2023/08/12 08:11:04;;;;;;;3.90;2.80;;;;;;;28.75;43.33;101374.00;5028024;27;97749;-70
2023/08/12 08:13:30;;;;;;;4.65;3.10;;;;;;;28.61;44.19;101370.97;5030106;27;97259;-69
2023/08/12 08:15:58;;;;;;;5.65;3.10;;;;;;;28.68;43.66;101378.38;5019707;27;99293;-69
2023/08/12 08:18:25;;;;;;;4.65;2.92;;;;;;;28.32;45.01;101376.63;5025342;27;98853;-68
2023/08/12 08:20:51;;;;;;;4.53;3.13;;;;;;;28.28;45.04;101376.09;5024981;27;97085;-69
2023/08/12 08:23:17;;;;;;;3.85;2.83;;;;;;;28.52;44.66;101372.75;5027316;27;98577;-68
2023/08/12 08:25:44;;;;;;;9.40;3.00;;;;;;;28.38;45.37;101370.56;5020560;27;100765;-69
2023/08/12 08:28:10;;;;;;;4.18;2.95;;;;;;;28.49;45.13;101370.34;5023945;27;98862;-70
2023/08/12 08:30:37;;;;;;;4.22;2.90;;;;;;;28.52;44.92;101368.19;5027233;27;97016;-69
2023/08/12 08:33:07;;;;;;;5.70;3.30;;;;;;;28.25;46.08;101373.66;5032582;27;97311;-68
2023/08/12 08:35:34;;;;;;;5.43;2.92;;;;;;;28.38;45.89;101376.00;5030322;27;98753;-67
2023/08/12 08:38:00;;;;;;;7.95;3.28;;;;;;;28.14;46.56;101377.47;5031553;27;98817;-67
2023/08/12 08:40:27;;;;;;;5.60;3.25;;;;;;;28.31;46.53;101377.63;5022150;27;97372;-68
2023/08/12 08:42:54;;;;;;;5.03;3.28;;;;;;;28.42;46.44;101378.25;5025912;27;96965;-67
2023/08/12 08:45:22;;;;;;;20.08;9.95;;;;;;;28.40;46.61;101390.31;5027114;27;99330;-68
2023/08/12 08:47:50;;;;;;;10.05;3.53;;;;;;;28.49;46.13;101381.22;5028890;27;101412;-68
2023/08/12 08:50:18;;;;;;;4.03;3.00;;;;;;;28.48;46.59;101382.25;5024581;27;99076;-68
2023/08/12 08:52:45;;;;;;;9.45;3.42;;;;;;;28.55;46.39;101381.44;5019499;27;98943;-68
2023/08/12 08:55:12;;;;;;;5.63;3.67;;;;;;;28.46;46.71;101378.81;5028298;27;102875;-68
2023/08/12 08:57:39;;;;;;;5.75;3.58;;;;;;;28.70;47.36;101368.16;5022569;27;101326;-69
2023/08/12 09:00:07;;;;;;;7.47;3.67;;;;;;;28.90;47.76;101361.56;5022164;27;97237;-69
2023/08/12 09:02:34;;;;;;;5.90;3.83;;;;;;;28.84;48.15;101361.34;5030584;27;96785;-69
2023/08/12 09:05:02;;;;;;;6.97;3.67;;;;;;;28.63;49.09;101356.19;5027302;27;99074;-68
2023/08/12 09:07:32;;;;;;;9.15;3.60;;;;;;;28.66;48.10;101358.63;5027071;27;99850;-68
2023/08/12 09:10:01;;;;;;;5.65;3.08;;;;;;;28.96;48.10;101353.78;5027399;27;101110;-68
2023/08/12 09:12:28;;;;;;;6.72;3.90;;;;;;;29.02;48.37;101340.38;5031377;27;96759;-68
2023/08/12 09:14:54;;;;;;;4.60;3.40;;;;;;;29.08;49.40;101341.66;5025755;27;99541;-69
2023/08/12 09:17:20;;;;;;;5.38;3.83;;;;;;;29.35;47.03;101356.94;5025129;27;101382;-68
2023/08/12 09:19:47;;;;;;;12.20;3.58;;;;;;;29.09;47.29;101363.22;5026893;27;97784;-68
2023/08/12 09:22:16;;;;;;;6.40;3.40;;;;;;;29.07;47.13;101367.13;5030272;27;96931;-68
2023/08/12 09:24:44;;;;;;;7.63;3.40;;;;;;;29.22;46.35;101366.38;5024494;27;102255;-68
2023/08/12 09:27:10;;;;;;;5.53;3.47;;;;;;;29.40;46.19;101365.50;5020875;27;99429;-68
2023/08/12 09:29:37;;;;;;;9.82;3.50;;;;;;;29.44;45.24;101373.19;5030146;27;98735;-68
2023/08/12 09:32:10;;;;;;;8.65;4.05;;;;;;;29.45;45.31;101350.41;5023179;27;97895;-68
2023/08/12 09:34:36;;;;;;;11.30;4.15;;;;;;;29.48;44.95;101352.78;5022996;27;98734;-68
2023/08/12 09:37:03;;;;;;;5.93;3.70;;;;;;;29.70;45.11;101352.22;5025444;27;99035;-67
2023/08/12 09:39:30;;;;;;;9.55;4.30;;;;;;;29.51;45.77;101343.44;5023833;27;98807;-68
2023/08/12 09:41:59;;;;;;;12.43;3.53;;;;;;;29.62;44.89;101345.88;5028486;27;97010;-68
2023/08/12 09:44:26;;;;;;;6.22;3.47;;;;;;;29.68;45.28;101346.06;5027438;27;99405;-68
2023/08/12 09:46:57;;;;;;;5.25;3.42;;;;;;;29.51;45.45;101351.63;5026301;27;98989;-68
2023/08/12 09:49:23;;;;;;;8.10;3.20;;;;;;;29.60;44.82;101345.19;5023227;27;96953;-69
2023/08/12 09:51:51;;;;;;;7.00;3.42;;;;;;;30.04;44.51;101351.34;5028349;27;97347;-68
2023/08/12 09:54:19;;;;;;;8.82;4.07;;;;;;;29.93;44.71;101343.50;5025154;27;98976;-68
2023/08/12 09:56:49;;;;;;;7.85;3.85;;;;;;;30.18;44.00;101341.69;5024117;27;98835;-64
2023/08/12 09:59:22;;;;;;;6.03;4.50;;;;;;;30.22;43.99;101348.47;5028536;27;96819;-66
2023/08/12 10:01:50;;;;;;;6.45;3.28;;;;;;;30.19;44.61;101343.38;5025032;27;97517;-64
2023/08/12 10:04:18;;;;;;;6.22;3.28;;;;;;;30.25;43.75;101348.16;5027259;27;98926;-65
2023/08/12 10:06:45;;;;;;;4.63;3.60;;;;;;;30.07;44.64;101340.09;5023226;27;99207;-65
2023/08/12 10:09:12;;;;;;;4.88;3.20;;;;;;;30.07;44.55;101342.81;5022435;27;98507;-66
2023/08/12 10:11:39;;;;;;;4.18;3.25;;;;;;;29.99;44.60;101345.56;5025294;27;96875;-65
2023/08/12 10:14:05;;;;;;;4.78;3.50;;;;;;;29.95;45.46;101335.97;5020284;27;100338;-65
2023/08/12 10:16:34;;;;;;;9.50;3.60;;;;;;;29.81;45.39;101328.41;5022473;27;98663;-64
2023/08/12 10:19:02;;;;;;;6.90;3.50;;;;;;;29.92;45.38;101317.25;5019773;27;98427;-65
2023/08/12 10:21:29;;;;;;;5.88;3.38;;;;;;;30.10;45.86;101309.81;5029034;27;98102;-64
2023/08/12 10:23:58;;;;;;;6.10;3.58;;;;;;;30.26;45.46;101306.25;5024552;27;99719;-64
2023/08/12 10:26:25;;;;;;;4.53;3.15;;;;;;;30.31;44.13;101307.47;5023561;27;99101;-65
2023/08/12 10:28:51;;;;;;;3.60;3.08;;;;;;;30.43;44.01;101306.09;5022209;27;97651;-64
2023/08/12 10:31:19;;;;;;;8.20;3.50;;;;;;;30.63;43.46;101301.19;5015093;27;97486;-65
2023/08/12 10:33:49;;;;;;;7.93;3.25;;;;;;;30.63;44.10;101295.72;5018273;27;98939;-65
2023/08/12 10:36:16;;;;;;;5.85;3.20;;;;;;;30.54;44.59;101295.88;5028609;27;99933;-65
2023/08/12 10:38:44;;;;;;;5.95;3.53;;;;;;;30.90;43.84;101286.31;5027736;27;96740;-65
2023/08/12 10:41:18;;;;;;;6.43;3.05;;;;;;;31.16;43.05;101284.25;5028977;27;97505;-64
2023/08/12 10:43:53;;;;;;;6.90;3.70;;;;;;;31.04;43.85;101288.34;5024172;27;99298;-65
2023/08/12 10:46:24;;;;;;;7.78;3.78;;;;;;;31.01;43.60;101296.00;5029003;27;98819;-65
2023/08/12 10:49:04;;;;;;;14.35;3.50;;;;;;;31.35;42.44;101296.63;5024435;27;96784;-64
2023/08/12 10:51:41;;;;;;;9.88;3.58;;;;;;;31.39;42.56;101297.13;5025408;27;97449;-64
2023/08/12 10:54:15;;;;;;;7.85;3.85;;;;;;;31.37;42.95;101304.66;5028247;27;98825;-65
2023/08/12 10:57:11;;;;;;;8.98;4.07;;;;;;;31.22;43.71;101313.56;5026389;27;99507;-65
2023/08/12 10:59:51;;;;;;;5.57;3.85;;;;;;;31.20;43.79;101301.97;5025430;27;96785;-65
2023/08/12 11:02:19;;;;;;;5.88;3.38;;;;;;;31.28;43.39;101301.94;5026641;27;96980;-65
2023/08/12 11:04:49;;;;;;;8.13;3.58;;;;;;;31.18;44.17;101294.97;5028403;27;98971;-65
2023/08/12 11:07:17;;;;;;;6.88;3.20;;;;;;;31.64;42.96;101291.41;5025845;27;99803;-65
2023/08/12 11:09:43;;;;;;;8.07;3.65;;;;;;;31.58;43.21;101291.22;5029521;27;96773;-65
2023/08/12 11:12:10;;;;;;;4.75;3.30;;;;;;;31.77;43.12;101290.00;5023547;27;96853;-65
2023/08/12 11:14:49;;;;;;;8.43;3.70;;;;;;;31.45;42.94;101289.06;5024267;27;98483;-65
2023/08/12 11:17:15;;;;;;;5.55;2.88;;;;;;;31.61;42.89;101290.94;5030620;27;99342;-65
2023/08/12 11:19:42;;;;;;;3.40;3.10;;;;;;;31.87;42.17;101288.75;5029787;27;96843;-65
2023/08/12 11:22:12;;;;;;;6.03;3.58;;;;;;;31.41;42.87;101290.47;5021362;27;96835;-65
2023/08/12 11:24:41;;;;;;;5.55;3.55;;;;;;;31.19;43.55;101289.34;5024832;27;99015;-65